Time;durP1;ratioP1;P1;durP2;ratioP2;P2;SDS_P1;SDS_P2;PMS_P1;PMS_P2;Temp;Humidity;BMP_temperature;BMP_pressure;BME280_temperature;BME280_humidity;BME280_pressure;Samples;Min_cycle;Max_cycle;Signal;HPM_P1;HPM_P2
2022/06/28 00:01:30;;;;;;;;;;;17.70;84.00;;;;;;5052942;28;19916;-77
2022/06/28 00:03:56;;;;;;;;;;;17.70;83.60;;;;;;5058911;28;20513;-77
2022/06/28 00:06:21;;;;;;;;;;;17.60;83.70;;;;;;5055634;28;19982;-77
2022/06/28 00:08:47;;;;;;;;;;;17.60;83.70;;;;;;5052041;28;19912;-77
2022/06/28 00:11:12;;;;;;;;;;;17.60;83.50;;;;;;5064819;28;19989;-77
2022/06/28 00:13:38;;;;;;;;;;;17.60;83.60;;;;;;5064801;28;19908;-77
2022/06/28 00:16:06;;;;;;;;;;;17.60;84.00;;;;;;5063386;28;19908;-77
2022/06/28 00:18:38;;;;;;;;;;;17.50;83.70;;;;;;5060023;28;19923;-77
2022/06/28 00:21:06;;;;;;;;;;;17.50;83.70;;;;;;5063316;28;19916;-77
2022/06/28 00:23:32;;;;;;;;;;;17.50;84.00;;;;;;5049599;28;19917;-77
2022/06/28 00:25:57;;;;;;;;;;;17.50;84.20;;;;;;5052163;28;19923;-77
2022/06/28 00:28:23;;;;;;;;;;;17.50;84.10;;;;;;5052324;28;19923;-77
2022/06/28 00:30:49;;;;;;;;;;;17.50;84.20;;;;;;5057586;28;19974;-77
2022/06/28 00:33:14;;;;;;;;;;;17.50;83.70;;;;;;5045541;28;19959;-77
2022/06/28 00:35:40;;;;;;;;;;;17.50;83.80;;;;;;5052143;28;19932;-77
2022/06/28 00:38:05;;;;;;;;;;;17.40;83.70;;;;;;5063250;28;19916;-77
2022/06/28 00:40:32;;;;;;;;;;;17.40;83.90;;;;;;5047646;28;19912;-77
2022/06/28 00:42:57;;;;;;;;;;;17.40;84.20;;;;;;5064253;28;19923;-77
2022/06/28 00:45:23;;;;;;;;;;;17.40;84.00;;;;;;5064047;28;19921;-77
2022/06/28 00:47:49;;;;;;;;;;;17.40;83.80;;;;;;5046362;28;20338;-77
2022/06/28 00:50:15;;;;;;;;;;;17.40;84.00;;;;;;5051320;28;19969;-77
2022/06/28 00:53:00;;;;;;;;;;;17.40;84.40;;;;;;5050500;28;19940;-77
2022/06/28 00:55:25;;;;;;;;;;;17.30;84.30;;;;;;5052087;28;19913;-77
2022/06/28 00:57:51;;;;;;;;;;;17.30;84.20;;;;;;5045361;28;19935;-77
2022/06/28 01:00:16;;;;;;;;;;;17.30;83.80;;;;;;5045528;28;20488;-77
2022/06/28 01:02:42;;;;;;;;;;;17.30;83.90;;;;;;5047812;28;20247;-77
2022/06/28 01:05:07;;;;;;;;;;;17.30;83.80;;;;;;5047624;28;20440;-77
2022/06/28 01:07:33;;;;;;;;;;;17.20;83.80;;;;;;5061828;28;19924;-77
2022/06/28 01:09:59;;;;;;;;;;;17.20;83.80;;;;;;5045326;28;20021;-77
2022/06/28 01:12:25;;;;;;;;;;;17.20;84.40;;;;;;5045608;28;19917;-77
2022/06/28 01:14:50;;;;;;;;;;;17.20;84.10;;;;;;5049366;28;19920;-77
2022/06/28 01:17:16;;;;;;;;;;;17.20;84.30;;;;;;5057548;28;19913;-77
2022/06/28 01:19:41;;;;;;;;;;;17.20;84.40;;;;;;5055787;28;19923;-77
2022/06/28 01:22:09;;;;;;;;;;;17.20;84.10;;;;;;5058401;28;19923;-77
2022/06/28 01:24:35;;;;;;;;;;;17.20;84.00;;;;;;5047644;28;19925;-77
2022/06/28 01:27:00;;;;;;;;;;;17.10;84.00;;;;;;5044989;28;20550;-77
2022/06/28 01:29:26;;;;;;;;;;;17.10;84.40;;;;;;5045390;28;20553;-73
2022/06/28 01:31:51;;;;;;;;;;;17.10;84.10;;;;;;5046596;28;19916;-73
2022/06/28 01:34:17;;;;;;;;;;;17.10;84.10;;;;;;5045468;28;19912;-72
2022/06/28 01:36:43;;;;;;;;;;;17.10;84.10;;;;;;5052964;28;19920;-73
2022/06/28 01:39:08;;;;;;;;;;;17.10;84.60;;;;;;5050014;28;19913;-73
2022/06/28 01:41:34;;;;;;;;;;;17.10;84.60;;;;;;5044702;28;19920;-73
2022/06/28 01:44:01;;;;;;;;;;;17.10;84.60;;;;;;5050506;28;20149;-73
2022/06/28 01:46:27;;;;;;;;;;;17.10;84.50;;;;;;5061409;28;20434;-73
2022/06/28 01:48:54;;;;;;;;;;;17.10;84.50;;;;;;5061955;28;19964;-73
2022/06/28 01:51:20;;;;;;;;;;;17.00;84.40;;;;;;5062793;28;19912;-73
2022/06/28 01:53:45;;;;;;;;;;;17.00;84.50;;;;;;5055627;28;20440;-73
2022/06/28 01:56:11;;;;;;;;;;;17.00;84.60;;;;;;5044533;28;19977;-73
2022/06/28 01:58:37;;;;;;;;;;;17.00;84.50;;;;;;5044377;28;19913;-73
2022/06/28 02:01:03;;;;;;;;;;;17.00;84.40;;;;;;5044721;28;19955;-73
2022/06/28 02:03:29;;;;;;;;;;;17.00;84.60;;;;;;5044593;28;19948;-73
2022/06/28 02:05:54;;;;;;;;;;;17.00;84.50;;;;;;5051734;28;19999;-73
2022/06/28 02:08:20;;;;;;;;;;;16.90;84.50;;;;;;5061936;28;19993;-73
2022/06/28 02:10:45;;;;;;;;;;;16.90;84.50;;;;;;5055576;28;19916;-73
2022/06/28 02:13:11;;;;;;;;;;;16.90;84.50;;;;;;5044181;28;19917;-73
2022/06/28 02:15:36;;;;;;;;;;;16.90;84.50;;;;;;5044538;28;19931;-73
2022/06/28 02:18:02;;;;;;;;;;;16.90;84.50;;;;;;5043659;28;19913;-73
2022/06/28 02:20:27;;;;;;;;;;;16.90;84.50;;;;;;5062603;28;19915;-72
2022/06/28 02:22:53;;;;;;;;;;;16.90;84.40;;;;;;5062660;28;19917;-73
2022/06/28 02:25:18;;;;;;;;;;;16.80;84.50;;;;;;5062405;28;19920;-72
2022/06/28 02:27:44;;;;;;;;;;;16.80;84.40;;;;;;5051030;28;19917;-72
2022/06/28 02:30:10;;;;;;;;;;;16.80;84.40;;;;;;5043928;28;19924;-73
2022/06/28 02:32:35;;;;;;;;;;;16.80;84.40;;;;;;5044440;28;19916;-73
2022/06/28 02:40:29;;;;;;;;;;;16.80;84.50;;;;;;5062562;28;20640;-73
2022/06/28 02:42:56;;;;;;;;;;;16.80;84.40;;;;;;5061996;28;19932;-73
2022/06/28 02:45:22;;;;;;;;;;;16.70;84.30;;;;;;5044595;28;19920;-73
2022/06/28 02:47:48;;;;;;;;;;;16.70;84.30;;;;;;5043603;28;19909;-72
2022/06/28 02:50:14;;;;;;;;;;;16.70;84.40;;;;;;5044435;28;20223;-73
2022/06/28 02:52:39;;;;;;;;;;;16.70;84.50;;;;;;5046503;28;19928;-73
2022/06/28 02:55:06;;;;;;;;;;;16.70;84.50;;;;;;5047648;28;19951;-73
2022/06/28 02:57:32;;;;;;;;;;;16.70;84.50;;;;;;5047297;28;19919;-73
2022/06/28 02:59:57;;;;;;;;;;;16.70;84.50;;;;;;5055824;28;19917;-72
2022/06/28 03:02:23;;;;;;;;;;;16.70;84.40;;;;;;5047623;28;19963;-73
2022/06/28 03:04:49;;;;;;;;;;;16.70;84.50;;;;;;5047528;28;19920;-72
2022/06/28 03:07:14;;;;;;;;;;;16.70;84.40;;;;;;5055800;28;19916;-73
2022/06/28 03:09:40;;;;;;;;;;;16.60;84.30;;;;;;5064119;28;20638;-73
2022/06/28 03:12:06;;;;;;;;;;;16.60;84.20;;;;;;5063929;28;19916;-73
2022/06/28 03:14:32;;;;;;;;;;;16.60;84.30;;;;;;5065210;28;20015;-72
2022/06/28 03:16:57;;;;;;;;;;;16.60;84.40;;;;;;5056875;28;19923;-72
2022/06/28 03:19:23;;;;;;;;;;;16.50;84.40;;;;;;5045543;28;20510;-73
2022/06/28 03:21:48;;;;;;;;;;;16.50;84.30;;;;;;5058087;28;20121;-72
2022/06/28 03:24:14;;;;;;;;;;;16.50;84.40;;;;;;5065172;28;20438;-73
2022/06/28 03:26:39;;;;;;;;;;;16.50;84.40;;;;;;5065310;28;19913;-72
2022/06/28 03:29:05;;;;;;;;;;;16.50;84.50;;;;;;5065346;28;19912;-72
2022/06/28 03:31:31;;;;;;;;;;;16.50;84.50;;;;;;5065131;28;19920;-73
2022/06/28 03:33:56;;;;;;;;;;;16.50;84.60;;;;;;5057151;28;20271;-72
2022/06/28 03:36:22;;;;;;;;;;;16.50;84.50;;;;;;5058314;28;20164;-72
2022/06/28 03:38:47;;;;;;;;;;;16.50;84.60;;;;;;5063359;28;19916;-73
2022/06/28 03:41:22;;;;;;;;;;;16.50;84.60;;;;;;5046676;28;20515;-73
2022/06/28 03:43:48;;;;;;;;;;;16.50;84.50;;;;;;5046600;28;20699;-73
2022/06/28 03:46:13;;;;;;;;;;;16.40;84.60;;;;;;5046175;28;19928;-72
2022/06/28 03:48:39;;;;;;;;;;;16.40;84.60;;;;;;5048882;28;19970;-72
2022/06/28 03:51:04;;;;;;;;;;;16.40;84.50;;;;;;5046288;28;19912;-72
2022/06/28 03:53:30;;;;;;;;;;;16.40;84.60;;;;;;5046510;28;19919;-72
2022/06/28 03:55:55;;;;;;;;;;;16.40;84.60;;;;;;5046461;28;19913;-72
2022/06/28 03:58:21;;;;;;;;;;;16.40;84.70;;;;;;5062569;28;20003;-72
2022/06/28 04:00:47;;;;;;;;;;;16.40;84.60;;;;;;5064625;28;20391;-72
2022/06/28 04:03:12;;;;;;;;;;;16.40;84.60;;;;;;5057667;28;19917;-73
2022/06/28 04:05:38;;;;;;;;;;;16.40;84.70;;;;;;5047851;28;19923;-73
2022/06/28 04:08:03;;;;;;;;;;;16.40;84.60;;;;;;5046143;28;19958;-73
2022/06/28 04:10:29;;;;;;;;;;;16.40;84.60;;;;;;5046257;28;19970;-72
2022/06/28 04:12:54;;;;;;;;;;;16.40;84.60;;;;;;5045908;28;19913;-72
2022/06/28 04:15:20;;;;;;;;;;;16.40;84.60;;;;;;5045652;28;19919;-72
2022/06/28 04:17:45;;;;;;;;;;;16.40;84.60;;;;;;5045427;28;19952;-73
2022/06/28 04:20:11;;;;;;;;;;;16.40;84.70;;;;;;5045702;28;19935;-73
2022/06/28 04:22:37;;;;;;;;;;;16.40;84.70;;;;;;5054308;28;20430;-72
2022/06/28 04:25:02;;;;;;;;;;;16.40;84.70;;;;;;5045743;28;19936;-72
2022/06/28 04:27:28;;;;;;;;;;;16.40;84.70;;;;;;5045176;28;19913;-72
2022/06/28 04:29:53;;;;;;;;;;;16.40;84.70;;;;;;5045693;28;19913;-72
2022/06/28 04:32:19;;;;;;;;;;;16.40;84.70;;;;;;5045623;28;19917;-72
2022/06/28 04:34:44;;;;;;;;;;;16.40;84.50;;;;;;5045800;28;19959;-72
2022/06/28 04:37:10;;;;;;;;;;;16.40;84.50;;;;;;5060169;28;19912;-72
2022/06/28 04:39:35;;;;;;;;;;;16.40;84.50;;;;;;5055269;28;19923;-73
2022/06/28 04:42:02;;;;;;;;;;;16.40;84.60;;;;;;5045270;28;20441;-72
2022/06/28 04:44:28;;;;;;;;;;;16.40;84.60;;;;;;5044273;28;19986;-72
2022/06/28 04:46:54;;;;;;;;;;;16.40;84.70;;;;;;5045143;28;20357;-72
2022/06/28 04:49:19;;;;;;;;;;;16.40;84.70;;;;;;5045153;28;19912;-72
2022/06/28 04:51:45;;;;;;;;;;;16.40;84.70;;;;;;5055751;28;20360;-72
2022/06/28 04:54:10;;;;;;;;;;;16.40;85.30;;;;;;5063116;28;19916;-72
2022/06/28 04:56:36;;;;;;;;;;;16.40;84.70;;;;;;5052947;28;20047;-73
2022/06/28 04:59:01;;;;;;;;;;;16.40;84.70;;;;;;5044930;28;19912;-73
2022/06/28 05:01:27;;;;;;;;;;;16.40;84.60;;;;;;5044929;28;20008;-72
2022/06/28 05:03:52;;;;;;;;;;;16.40;84.50;;;;;;5047610;28;19920;-72
2022/06/28 05:06:17;;;;;;;;;;;16.40;84.50;;;;;;5044815;28;19917;-72
2022/06/28 05:08:43;;;;;;;;;;;16.40;84.50;;;;;;5046144;28;19913;-72
2022/06/28 05:11:09;;;;;;;;;;;16.40;84.50;;;;;;5044913;28;19908;-72
2022/06/28 05:13:34;;;;;;;;;;;16.40;84.50;;;;;;5044598;28;19951;-73
2022/06/28 05:16:00;;;;;;;;;;;16.50;84.30;;;;;;5044848;28;19909;-72
2022/06/28 05:18:25;;;;;;;;;;;16.50;84.50;;;;;;5044953;28;20015;-72
2022/06/28 05:20:51;;;;;;;;;;;16.50;84.50;;;;;;5048401;28;19920;-72
2022/06/28 05:23:16;;;;;;;;;;;16.50;84.50;;;;;;5055464;28;19920;-72
2022/06/28 05:25:42;;;;;;;;;;;16.50;84.40;;;;;;5044624;28;20460;-72
2022/06/28 05:28:07;;;;;;;;;;;16.50;84.30;;;;;;5043175;28;20012;-72
2022/06/28 05:30:33;;;;;;;;;;;16.50;84.30;;;;;;5044758;28;19925;-72
2022/06/28 05:33:01;;;;;;;;;;;16.50;84.20;;;;;;5044648;28;19917;-72
2022/06/28 05:35:26;;;;;;;;;;;16.50;84.30;;;;;;5049403;28;19956;-72
2022/06/28 05:37:52;;;;;;;;;;;16.50;84.20;;;;;;5061178;28;19986;-72
2022/06/28 05:40:17;;;;;;;;;;;16.50;84.30;;;;;;5054870;28;19962;-77
2022/06/28 05:42:43;;;;;;;;;;;16.60;84.20;;;;;;5046383;28;19913;-77
2022/06/28 05:45:08;;;;;;;;;;;16.60;84.20;;;;;;5043063;28;19970;-77
2022/06/28 05:47:34;;;;;;;;;;;16.60;84.20;;;;;;5044328;28;19951;-77
2022/06/28 05:49:59;;;;;;;;;;;16.60;84.20;;;;;;5046605;28;20017;-77
2022/06/28 05:52:25;;;;;;;;;;;16.60;84.20;;;;;;5052373;28;20021;-77
2022/06/28 05:54:50;;;;;;;;;;;16.60;84.10;;;;;;5043114;28;19920;-77
2022/06/28 05:57:16;;;;;;;;;;;16.60;83.90;;;;;;5059128;28;20015;-77
2022/06/28 05:59:41;;;;;;;;;;;16.70;84.00;;;;;;5048022;28;19917;-77
2022/06/28 06:02:07;;;;;;;;;;;16.60;83.90;;;;;;5043256;28;19913;-73
2022/06/28 06:04:32;;;;;;;;;;;16.70;83.90;;;;;;5044496;28;20515;-72
2022/06/28 06:06:58;;;;;;;;;;;16.70;83.80;;;;;;5060329;28;19916;-72
2022/06/28 06:09:24;;;;;;;;;;;16.70;83.80;;;;;;5062883;28;19920;-73
2022/06/28 06:11:49;;;;;;;;;;;16.70;83.70;;;;;;5061097;28;20621;-72
2022/06/28 06:14:16;;;;;;;;;;;16.70;83.90;;;;;;5049709;28;20681;-73
2022/06/28 06:16:42;;;;;;;;;;;16.70;83.70;;;;;;5044206;28;19923;-73
2022/06/28 06:19:08;;;;;;;;;;;16.70;83.70;;;;;;5057675;28;19913;-77
2022/06/28 06:21:33;;;;;;;;;;;16.80;83.60;;;;;;5053742;28;19913;-77
2022/06/28 06:23:59;;;;;;;;;;;16.80;83.80;;;;;;5063276;28;20342;-77
2022/06/28 06:26:24;;;;;;;;;;;16.80;83.50;;;;;;5053232;28;19959;-77
2022/06/28 06:28:50;;;;;;;;;;;16.80;83.50;;;;;;5059423;28;20011;-77
2022/06/28 06:31:16;;;;;;;;;;;16.80;83.40;;;;;;5058853;28;20677;-77
2022/06/28 06:33:41;;;;;;;;;;;16.80;83.40;;;;;;5066423;28;19913;-78
2022/06/28 06:36:07;;;;;;;;;;;16.80;83.30;;;;;;5064992;28;20468;-78
2022/06/28 06:38:32;;;;;;;;;;;16.90;84.40;;;;;;5064282;28;20395;-77
2022/06/28 06:40:59;;;;;;;;;;;16.90;83.20;;;;;;5052356;28;19956;-77
2022/06/28 06:43:26;;;;;;;;;;;16.90;83.30;;;;;;5048198;28;19920;-77
2022/06/28 06:45:51;;;;;;;;;;;16.90;83.10;;;;;;5046495;28;20015;-77
2022/06/28 06:48:17;;;;;;;;;;;16.90;83.00;;;;;;5047867;28;20496;-77
2022/06/28 06:50:42;;;;;;;;;;;16.90;82.90;;;;;;5050779;28;19943;-77
2022/06/28 06:53:10;;;;;;;;;;;17.00;82.80;;;;;;5057173;28;19916;-77
2022/06/28 06:55:36;;;;;;;;;;;17.00;82.80;;;;;;5048634;28;19964;-77
2022/06/28 06:58:01;;;;;;;;;;;17.00;82.80;;;;;;5047474;28;19955;-77
2022/06/28 07:00:27;;;;;;;;;;;17.00;82.80;;;;;;5046054;28;19913;-78
2022/06/28 07:02:52;;;;;;;;;;;17.00;82.60;;;;;;5045819;28;19923;-77
2022/06/28 07:05:18;;;;;;;;;;;17.00;82.60;;;;;;5047791;28;19913;-78
2022/06/28 07:07:44;;;;;;;;;;;17.00;82.60;;;;;;5060068;28;19958;-77
2022/06/28 07:10:09;;;;;;;;;;;17.10;82.40;;;;;;5065746;28;19990;-77
2022/06/28 07:12:35;;;;;;;;;;;17.10;82.40;;;;;;5064743;28;19927;-78
2022/06/28 07:15:00;;;;;;;;;;;17.10;83.00;;;;;;5047221;28;19913;-77
2022/06/28 07:17:26;;;;;;;;;;;17.10;82.30;;;;;;5046976;28;20508;-77
2022/06/28 07:19:51;;;;;;;;;;;17.10;82.20;;;;;;5047829;28;19917;-77
2022/06/28 07:22:17;;;;;;;;;;;17.10;82.60;;;;;;5048867;28;19914;-77
2022/06/28 07:24:43;;;;;;;;;;;17.10;82.30;;;;;;5065028;28;20031;-77
2022/06/28 07:27:08;;;;;;;;;;;17.10;82.10;;;;;;5065434;28;19920;-77
2022/06/28 07:29:34;;;;;;;;;;;17.20;82.10;;;;;;5061097;28;20357;-77
2022/06/28 07:31:59;;;;;;;;;;;17.20;82.10;;;;;;5046896;28;20274;-77
2022/06/28 07:34:25;;;;;;;;;;;17.20;81.90;;;;;;5047099;28;19920;-77
2022/06/28 07:36:50;;;;;;;;;;;17.20;81.90;;;;;;5050357;28;19999;-77
2022/06/28 07:39:16;;;;;;;;;;;17.30;81.80;;;;;;5052294;28;20289;-77
2022/06/28 07:41:41;;;;;;;;;;;17.30;81.60;;;;;;5057653;28;19913;-77
2022/06/28 07:44:07;;;;;;;;;;;17.30;81.80;;;;;;5053310;28;19913;-78
2022/06/28 07:46:32;;;;;;;;;;;17.30;81.60;;;;;;5056005;28;19978;-77
2022/06/28 07:48:58;;;;;;;;;;;17.30;81.50;;;;;;5047404;28;20362;-77
2022/06/28 07:54:07;;;;;;;;;;;17.40;81.50;;;;;;5066195;28;19951;-77
2022/06/28 07:56:33;;;;;;;;;;;17.40;81.30;;;;;;5063958;28;20379;-77
2022/06/28 07:58:58;;;;;;;;;;;17.40;81.30;;;;;;5065080;28;20276;-77
2022/06/28 08:01:24;;;;;;;;;;;17.40;81.20;;;;;;5065292;28;19919;-77
2022/06/28 08:03:49;;;;;;;;;;;17.50;81.10;;;;;;5050595;28;20017;-77
2022/06/28 08:06:15;;;;;;;;;;;17.50;81.00;;;;;;5048856;28;19919;-77
2022/06/28 08:08:41;;;;;;;;;;;17.50;80.90;;;;;;5046614;28;19913;-77
2022/06/28 08:11:07;;;;;;;;;;;17.50;80.60;;;;;;5046121;28;19912;-77
2022/06/28 08:13:32;;;;;;;;;;;17.50;80.70;;;;;;5046373;28;19912;-73
2022/06/28 08:15:59;;;;;;;;;;;17.60;80.60;;;;;;5044480;28;20001;-73
2022/06/28 08:18:24;;;;;;;;;;;17.60;80.60;;;;;;5046899;28;20441;-77
2022/06/28 08:20:50;;;;;;;;;;;17.60;80.40;;;;;;5055137;28;19937;-77
2022/06/28 08:23:16;;;;;;;;;;;17.60;80.40;;;;;;5065342;28;19912;-77
2022/06/28 08:25:42;;;;;;;;;;;17.70;80.40;;;;;;5057284;28;19912;-77
2022/06/28 08:28:08;;;;;;;;;;;17.70;80.20;;;;;;5045338;28;19948;-77
2022/06/28 08:30:34;;;;;;;;;;;17.70;80.20;;;;;;5051324;28;19952;-77
2022/06/28 08:32:59;;;;;;;;;;;17.70;80.10;;;;;;5064810;28;19919;-77
2022/06/28 08:35:25;;;;;;;;;;;17.80;80.20;;;;;;5064649;28;19959;-77
2022/06/28 08:37:50;;;;;;;;;;;17.80;80.00;;;;;;5062918;28;19924;-77
2022/06/28 08:40:16;;;;;;;;;;;17.80;80.00;;;;;;5047698;28;19917;-77
2022/06/28 08:42:45;;;;;;;;;;;17.90;79.80;;;;;;5045410;28;19959;-77
2022/06/28 08:45:11;;;;;;;;;;;17.90;79.90;;;;;;5044923;28;19920;-77
2022/06/28 08:47:38;;;;;;;;;;;17.90;79.80;;;;;;5043974;28;19912;-77
2022/06/28 08:50:06;;;;;;;;;;;18.00;79.90;;;;;;5043301;28;19913;-78
2022/06/28 08:52:32;;;;;;;;;;;18.00;79.60;;;;;;5050104;28;19927;-77
2022/06/28 08:54:59;;;;;;;;;;;18.00;79.60;;;;;;5044883;28;20290;-77
2022/06/28 08:57:30;;;;;;;;;;;18.00;79.40;;;;;;5044548;28;20220;-77
2022/06/28 08:59:57;;;;;;;;;;;18.10;79.30;;;;;;5045017;28;20441;-77
2022/06/28 09:02:22;;;;;;;;;;;18.20;79.20;;;;;;5050761;28;20329;-77
2022/06/28 09:04:53;;;;;;;;;;;18.20;79.10;;;;;;5043514;28;19913;-77
2022/06/28 09:07:19;;;;;;;;;;;18.20;78.90;;;;;;5044753;28;20007;-77
2022/06/28 09:09:45;;;;;;;;;;;18.30;78.90;;;;;;5061207;28;19913;-77
2022/06/28 09:12:11;;;;;;;;;;;18.30;78.80;;;;;;5063237;28;20376;-77
2022/06/28 09:14:36;;;;;;;;;;;18.40;78.70;;;;;;5063472;28;19912;-77
2022/06/28 09:17:20;;;;;;;;;;;18.40;78.60;;;;;;5063031;28;19955;-77
2022/06/28 09:19:46;;;;;;;;;;;18.40;78.70;;;;;;5063402;28;20293;-77
2022/06/28 09:22:30;;;;;;;;;;;18.50;78.40;;;;;;5063458;28;19919;-77
2022/06/28 09:24:56;;;;;;;;;;;18.60;78.30;;;;;;5063867;28;19932;-77
2022/06/28 09:27:32;;;;;;;;;;;18.60;78.30;;;;;;5050558;28;20348;-77
2022/06/28 09:29:58;;;;;;;;;;;18.70;78.20;;;;;;5058267;28;19912;-77
2022/06/28 09:32:31;;;;;;;;;;;18.70;78.00;;;;;;5048709;28;20483;-77
2022/06/28 09:35:00;;;;;;;;;;;18.80;78.20;;;;;;5045701;28;20027;-77
2022/06/28 09:37:38;;;;;;;;;;;18.80;77.80;;;;;;5063130;28;20741;-77
2022/06/28 09:40:12;;;;;;;;;;;18.90;77.60;;;;;;5055965;28;20458;-77
2022/06/28 09:42:37;;;;;;;;;;;19.00;77.40;;;;;;5061489;28;19917;-77
2022/06/28 09:45:03;;;;;;;;;;;19.00;77.40;;;;;;5062670;28;20570;-77
2022/06/28 09:47:29;;;;;;;;;;;19.10;77.30;;;;;;5062644;28;20267;-77
2022/06/28 09:49:55;;;;;;;;;;;19.10;77.10;;;;;;5062787;28;19920;-77
2022/06/28 09:52:22;;;;;;;;;;;19.10;76.90;;;;;;5048331;28;19924;-77
2022/06/28 09:54:50;;;;;;;;;;;19.20;76.90;;;;;;5047642;28;19912;-77
2022/06/28 09:57:17;;;;;;;;;;;19.30;76.70;;;;;;5048472;28;20323;-77
2022/06/28 09:59:43;;;;;;;;;;;19.40;76.70;;;;;;5053160;28;19956;-77
2022/06/28 10:02:11;;;;;;;;;;;19.40;76.60;;;;;;5056999;28;19943;-77
2022/06/28 10:04:36;;;;;;;;;;;19.50;76.20;;;;;;5062660;28;19912;-77
2022/06/28 10:07:02;;;;;;;;;;;19.60;76.10;;;;;;5057416;28;19923;-77
2022/06/28 10:09:28;;;;;;;;;;;19.70;76.00;;;;;;5047666;28;19966;-76
2022/06/28 10:17:45;;;;;;;;;;;20.00;75.40;;;;;;5051701;28;19912;-77
2022/06/28 10:20:12;;;;;;;;;;;20.10;75.10;;;;;;5048495;28;19912;-77
2022/06/28 10:22:38;;;;;;;;;;;20.20;75.10;;;;;;5064149;28;20348;-76
2022/06/28 10:25:13;;;;;;;;;;;20.30;74.60;;;;;;5048395;28;19912;-77
2022/06/28 10:27:43;;;;;;;;;;;20.50;74.40;;;;;;5046625;28;20294;-76
2022/06/28 10:30:19;;;;;;;;;;;20.60;74.30;;;;;;5048454;28;20027;-76
2022/06/28 10:32:45;;;;;;;;;;;20.60;74.10;;;;;;5046829;28;19917;-76
2022/06/28 10:35:30;;;;;;;;;;;20.70;74.00;;;;;;5048150;28;20444;-76
2022/06/28 10:38:07;;;;;;;;;;;20.80;73.90;;;;;;5056553;28;19919;-76
2022/06/28 10:40:37;;;;;;;;;;;20.90;74.00;;;;;;5050884;28;19931;-76
2022/06/28 10:43:03;;;;;;;;;;;20.90;73.90;;;;;;5062607;28;20061;-76
2022/06/28 10:45:48;;;;;;;;;;;20.90;74.20;;;;;;5047255;28;20015;-76
2022/06/28 10:48:14;;;;;;;;;;;20.90;74.60;;;;;;5062888;28;20586;-76
2022/06/28 10:50:58;;;;;;;;;;;21.00;74.60;;;;;;5063081;28;19959;-76
2022/06/28 10:53:24;;;;;;;;;;;21.00;75.10;;;;;;5077602;28;20683;-76
2022/06/28 10:56:09;;;;;;;;;;;20.90;75.20;;;;;;5060305;28;19916;-76
2022/06/28 10:58:52;;;;;;;;;;;20.90;75.30;;;;;;5065423;28;19913;-76
2022/06/28 11:01:18;;;;;;;;;;;21.10;75.20;;;;;;5065020;28;19936;-76
2022/06/28 11:04:02;;;;;;;;;;;21.30;75.00;;;;;;5065927;28;19917;-76
2022/06/28 11:06:39;;;;;;;;;;;21.40;74.60;;;;;;5065954;28;19913;-73
2022/06/28 11:09:08;;;;;;;;;;;21.60;74.60;;;;;;5066094;28;19913;-75
2022/06/28 11:11:34;;;;;;;;;;;21.70;74.00;;;;;;5062269;28;19920;-75
2022/06/28 11:14:19;;;;;;;;;;;21.90;73.70;;;;;;5050050;28;19916;-72
2022/06/28 11:16:47;;;;;;;;;;;21.90;73.30;;;;;;5043063;28;19947;-75
2022/06/28 11:19:13;;;;;;;;;;;22.10;72.80;;;;;;5064569;28;19913;-76
2022/06/28 11:21:39;;;;;;;;;;;22.20;73.00;;;;;;5060143;28;19920;-76
2022/06/28 11:24:05;;;;;;;;;;;22.30;72.80;;;;;;5047052;28;19959;-76
2022/06/28 11:29:19;;;;;;;;;;;22.50;72.40;;;;;;5032653;28;19912;-76
2022/06/28 11:31:45;;;;;;;;;;;22.70;72.30;;;;;;5064873;28;20520;-76
2022/06/28 11:34:10;;;;;;;;;;;22.70;72.20;;;;;;5061749;28;19923;-76
2022/06/28 11:36:36;;;;;;;;;;;22.90;71.90;;;;;;5055864;28;20355;-73
2022/06/28 11:39:18;;;;;;;;;;;22.90;71.80;;;;;;5058313;28;20457;-76
2022/06/28 11:41:47;;;;;;;;;;;22.90;72.00;;;;;;5046919;28;19917;-76
2022/06/28 11:44:13;;;;;;;;;;;22.90;72.20;;;;;;5057911;28;19924;-76
2022/06/28 11:46:39;;;;;;;;;;;22.90;72.80;;;;;;5056687;28;19925;-76
2022/06/28 11:49:05;;;;;;;;;;;23.00;72.70;;;;;;5049196;28;19916;-73
2022/06/28 11:51:31;;;;;;;;;;;23.20;72.60;;;;;;5059362;28;19969;-73
2022/06/28 11:53:58;;;;;;;;;;;23.30;71.90;;;;;;5064565;28;20495;-76
2022/06/28 11:56:25;;;;;;;;;;;23.40;71.80;;;;;;5053050;28;19969;-73
2022/06/28 11:58:50;;;;;;;;;;;23.50;71.50;;;;;;5047844;28;19913;-73
2022/06/28 12:01:17;;;;;;;;;;;23.60;71.00;;;;;;5059116;28;20471;-73
2022/06/28 12:03:43;;;;;;;;;;;23.70;70.80;;;;;;5054602;28;19921;-73
2022/06/28 12:06:25;;;;;;;;;;;23.80;70.60;;;;;;5050821;28;20013;-75
2022/06/28 12:08:51;;;;;;;;;;;23.80;70.20;;;;;;5043766;28;19943;-76
2022/06/28 12:11:26;;;;;;;;;;;23.90;69.90;;;;;;5044194;28;19963;-75
2022/06/28 12:14:00;;;;;;;;;;;24.00;70.20;;;;;;5046578;28;19913;-73
2022/06/28 12:16:34;;;;;;;;;;;24.00;69.50;;;;;;5060414;28;20380;-75
2022/06/28 12:19:01;;;;;;;;;;;24.10;69.20;;;;;;5045091;28;19952;-75
2022/06/28 12:21:28;;;;;;;;;;;24.30;69.40;;;;;;5049968;28;20007;-76
2022/06/28 12:23:54;;;;;;;;;;;24.40;69.20;;;;;;5046278;28;19955;-73
2022/06/28 12:26:19;;;;;;;;;;;24.50;69.00;;;;;;5045298;28;20019;-73
2022/06/28 12:28:45;;;;;;;;;;;24.60;68.30;;;;;;5044442;28;20287;-73
2022/06/28 12:31:11;;;;;;;;;;;24.70;68.20;;;;;;5045133;28;19913;-73
2022/06/28 12:33:37;;;;;;;;;;;24.70;67.80;;;;;;5047962;28;19942;-73
2022/06/28 12:36:03;;;;;;;;;;;24.90;68.20;;;;;;5055256;28;20251;-75
2022/06/28 12:38:29;;;;;;;;;;;24.90;68.00;;;;;;5057748;28;19920;-76
2022/06/28 12:40:56;;;;;;;;;;;25.00;68.10;;;;;;5044821;28;19917;-76
2022/06/28 12:43:21;;;;;;;;;;;25.10;67.90;;;;;;5046482;28;20509;-72
2022/06/28 12:45:47;;;;;;;;;;;25.20;67.80;;;;;;5044858;28;19967;-76
2022/06/28 12:48:12;;;;;;;;;;;25.30;67.90;;;;;;5045273;28;19917;-76
2022/06/28 12:50:38;;;;;;;;;;;25.10;67.60;;;;;;5055053;28;19913;-76
2022/06/28 12:53:03;;;;;;;;;;;25.20;67.50;;;;;;5046907;28;19916;-76
2022/06/28 12:55:29;;;;;;;;;;;25.30;67.90;;;;;;5048373;28;19913;-76
2022/06/28 12:57:54;;;;;;;;;;;25.40;68.60;;;;;;5046247;28;20408;-76
2022/06/28 13:00:20;;;;;;;;;;;25.50;68.30;;;;;;5047259;28;19924;-73
2022/06/28 13:02:45;;;;;;;;;;;25.50;68.50;;;;;;5060454;28;19912;-73
2022/06/28 13:05:11;;;;;;;;;;;25.50;67.70;;;;;;5042596;28;20161;-73
2022/06/28 13:07:41;;;;;;;;;;;25.60;67.70;;;;;;5051189;28;19920;-76
2022/06/28 13:10:10;;;;;;;;;;;25.70;67.60;;;;;;5050000;28;19924;-76
2022/06/28 13:12:35;;;;;;;;;;;25.80;67.80;;;;;;5043967;28;20637;-76
2022/06/28 13:15:01;;;;;;;;;;;25.80;66.70;;;;;;5044508;28;19913;-76
2022/06/28 13:17:26;;;;;;;;;;;25.90;66.40;;;;;;5046229;28;20434;-75
2022/06/28 13:19:52;;;;;;;;;;;26.00;66.60;;;;;;5044507;28;19908;-73
2022/06/28 13:22:18;;;;;;;;;;;26.10;66.60;;;;;;5043281;28;19920;-72
2022/06/28 13:24:43;;;;;;;;;;;26.00;66.70;;;;;;5042658;28;20596;-73
2022/06/28 13:27:09;;;;;;;;;;;26.10;65.80;;;;;;5041999;28;19913;-76
2022/06/28 13:29:34;;;;;;;;;;;26.20;66.30;;;;;;5042689;28;20408;-76
2022/06/28 13:32:00;;;;;;;;;;;26.30;66.50;;;;;;5040874;28;20003;-76
2022/06/28 13:34:25;;;;;;;;;;;26.40;65.70;;;;;;5042182;28;20207;-76
2022/06/28 13:36:51;;;;;;;;;;;26.50;65.90;;;;;;5053337;28;19912;-76
2022/06/28 13:39:17;;;;;;;;;;;26.60;65.90;;;;;;5050602;28;20422;-75
2022/06/28 13:41:42;;;;;;;;;;;26.60;65.20;;;;;;5042171;28;20023;-76
2022/06/28 13:44:10;;;;;;;;;;;26.50;65.10;;;;;;5048758;28;19912;-76
2022/06/28 13:46:36;;;;;;;;;;;26.40;64.90;;;;;;5041880;28;19929;-76
2022/06/28 13:49:01;;;;;;;;;;;26.40;66.20;;;;;;5043495;28;19913;-75
2022/06/28 13:51:28;;;;;;;;;;;26.50;66.30;;;;;;5055463;28;19913;-76
2022/06/28 13:53:53;;;;;;;;;;;26.50;66.30;;;;;;5057109;28;19921;-76
2022/06/28 13:56:19;;;;;;;;;;;26.60;66.30;;;;;;5042011;28;20340;-76
2022/06/28 13:58:44;;;;;;;;;;;26.70;65.50;;;;;;5042526;28;19939;-76
2022/06/28 14:01:10;;;;;;;;;;;26.80;65.70;;;;;;5055532;28;19920;-73
2022/06/28 14:03:35;;;;;;;;;;;26.70;65.40;;;;;;5047455;28;19970;-73
2022/06/28 14:06:01;;;;;;;;;;;26.80;64.40;;;;;;5044160;28;19977;-74
2022/06/28 14:08:27;;;;;;;;;;;26.90;65.10;;;;;;5042794;28;19921;-74
2022/06/28 14:10:53;;;;;;;;;;;27.00;64.70;;;;;;5048809;28;19991;-74
2022/06/28 14:13:19;;;;;;;;;;;27.00;64.40;;;;;;5047474;28;19928;-74
2022/06/28 14:15:45;;;;;;;;;;;27.00;64.50;;;;;;5048596;28;20003;-74
2022/06/28 14:18:11;;;;;;;;;;;27.10;64.20;;;;;;5048360;28;19920;-74
2022/06/28 14:20:36;;;;;;;;;;;27.10;63.70;;;;;;5043651;28;19913;-76
2022/06/28 14:23:02;;;;;;;;;;;27.10;64.20;;;;;;5060373;28;20413;-76
2022/06/28 14:25:27;;;;;;;;;;;27.20;64.00;;;;;;5060676;28;19931;-77
2022/06/28 14:27:53;;;;;;;;;;;27.20;63.30;;;;;;5048404;28;19944;-77
2022/06/28 14:30:18;;;;;;;;;;;27.30;63.60;;;;;;5043566;28;19963;-77